Terminal Aerodrome Forecast
Issued by NWS

Home | Current Version | Previous Version | Text Only | Print | Product List | Glossary On
Versions: 1 2 3 4 5 6 7 8 9 10 11 12 13 14 15 16
000
FTUS44 KEPZ 192331
TAFLRU
TAF
KLRU 192331Z 2000/2024 26010G17KT P6SM VCSH BKN050 BKN120
     FM200200 26012KT P6SM BKN050 BKN120
     FM201000 28011KT P6SM FEW050 SCT150
     FM201800 29011G18KT P6SM FEW100=

USA.gov is the U.S. government's official web portal to all federal, state and local government web resources and services.